LDRILDPL

Guest
Details From LDRI - RIJEKA
To LDPL - Pula
Flight Number -
Tags generated
Created
Modified
Stats Distance 34 nm / 63 km
Max Altitude 0 ft / 0 m
Waypoints 3
Social Downloads 0
Likes 0
Share VATSIM

Download

Looking for another format? Having issues loading an existing format? Contact us
Advertisement - Login to hide

Notes

Basic altitude profile: - Ascent Rate: 2500ft/min - Ascent Speed: 250kts - Cruise Altitude: 35000ft - Cruise Speed: 420kts - Descent Rate: 1500ft/min - Descent Speed: 250kts Options: - Use NATs: no - Use PACOTS: no - Use low airways: yes - Use high airways: no

Route

LDRI PUL LDPL

ID Type Via Altitude Latitude Longitude Leg Dist Tot Dist Heading (true) Name
O LDRI APT - 0 ft / 0 m 45.21663˚ 14.57081˚ - 0 nm - RIJEKA
PUL VOR - 0 ft / 0 m 44.89237˚ 13.91813˚ 33 nm 33 nm 235° / 235° PULA VOR-DME
O LDPL APT - 0 ft / 0 m 44.89353˚ 13.92216˚ 0 nm 34 nm 68° / 68° Pula

Altitude Profile

Advertisement - Login to hide

LDRI

Details ICAO LDRI (RJK)
Name RIJEKA
Region Croatia
Timezone Europe/Zagreb (UTC+2.0)
Stats Elevation 278 ft / 85 m (AMSL)
Location 45.216635° 14.570813°
Runways 1
Magnetic Variation 3.673° E

METAR

LDRI 252030Z 33004KT CAVOK 22/14 Q1017

Decode

TAF

TAF LDRI 251725Z 2518/2618 09008KT CAVOK TX27/2613Z TN18/2604Z BECMG 2608/2610 32006KT PROB30 TEMPO 2612/2618 TSRA FEW030CB BKN035

Decode

Departure Runways

ID Width Length Bearing (true) Bearing (mag) Surface Threshold Offset Overrun Length
14 148 ft / 45 m 8,161 ft / 2,488 m 143.77° 140.10° Asphalt 0 ft / 0 m 0 ft / 0 m
32 148 ft / 45 m 8,161 ft / 2,488 m 323.78° 320.11° Asphalt 0 ft / 0 m 0 ft / 0 m

LDPL

Details ICAO LDPL (PUY)
Name Pula
Region Croatia
Timezone Europe/Zagreb (UTC+2.0)
Stats Elevation 274 ft / 84 m (AMSL)
Location 44.893531° 13.922156°
Runways 1
Magnetic Variation 3.523° E

METAR

LDPL 252030Z 07010KT CAVOK 21/15 Q1016 NOSIG

Decode

TAF

TAF LDPL 251725Z 2518/2618 31005KT CAVOK TX26/2612Z TN17/2604Z BECMG 2519/2521 06008KT BECMG 2608/2610 27006KT

Decode

Destination Runways

ID Width Length Bearing (true) Bearing (mag) Surface Threshold Offset Overrun Length
09 148 ft / 45 m 9,601 ft / 2,926 m 88.24° 84.72° Asphalt 250 ft / 76 m 0 ft / 0 m
27 148 ft / 45 m 9,601 ft / 2,926 m 268.27° 264.75° Asphalt 250 ft / 76 m 0 ft / 0 m

Approach Navaids

Runway Type Ident Frequency Range Bearing (true) Bearing (mag) Slope Elevation
27 Localiser IPU 111.50 MHz 25 nm / 46 km 268.28° 264.76° - 157 ft / 48 m (AMSL)
27 Glidescope IPU 111.50 MHz 25 nm / 46 km 268.28° 264.76° 3.20° 243 ft / 74 m (AMSL)

Popular Alternatives